Time;durP1;ratioP1;P1;durP2;ratioP2;P2;SDS_P1;SDS_P2;PMS_P1;PMS_P2;Temp;Humidity;BMP_temperature;BMP_pressure;BME280_temperature;BME280_humidity;BME280_pressure;Samples;Min_cycle;Max_cycle;Signal;HPM_P1;HPM_P2
2022/10/23 00:00:40;;;;;;;27.90;15.88;;;;;;;8.74;88.91;100149.83;1794791;78;21049;-64
2022/10/23 00:03:10;;;;;;;27.37;15.78;;;;;;;8.71;89.17;100151.57;1796627;78;21665;-64
2022/10/23 00:05:41;;;;;;;32.75;16.07;;;;;;;8.68;89.49;100145.98;1797141;79;21080;-64
2022/10/23 00:08:11;;;;;;;27.37;16.05;;;;;;;8.66;89.82;100148.58;1797439;79;21077;-63
2022/10/23 00:10:43;;;;;;;28.25;16.05;;;;;;;8.65;90.11;100149.09;1798348;78;21101;-63
2022/10/23 00:13:12;;;;;;;27.27;15.75;;;;;;;8.64;90.33;100150.13;1792144;79;21025;-63
2022/10/23 00:15:43;;;;;;;29.80;15.85;;;;;;;8.65;90.51;100146.36;1793482;79;21080;-64
2022/10/23 00:18:13;;;;;;;30.02;15.98;;;;;;;8.66;90.68;100148.58;1729700;80;21106;-62
2022/10/23 00:20:43;;;;;;;28.20;15.75;;;;;;;8.66;90.81;100143.11;1758763;79;21090;-65
2022/10/23 00:23:13;;;;;;;29.15;15.93;;;;;;;8.64;91.00;100143.82;1789250;78;21021;-64
2022/10/23 00:25:44;;;;;;;27.73;15.60;;;;;;;8.62;91.23;100134.45;1798607;79;21168;-63
2022/10/23 00:28:16;;;;;;;28.73;16.20;;;;;;;8.59;91.42;100138.94;1796308;79;21076;-65
2022/10/23 00:30:48;;;;;;;32.93;14.87;;;;;;;8.57;91.69;100144.59;1764340;79;21059;-63
2022/10/23 00:33:18;;;;;;;25.92;15.13;;;;;;;8.56;91.85;100137.43;1764117;79;21474;-64
2022/10/23 00:35:47;;;;;;;27.85;16.17;;;;;;;8.53;92.04;100132.88;1760766;79;21076;-64
2022/10/23 00:38:16;;;;;;;27.77;15.90;;;;;;;8.49;92.28;100139.23;1761397;79;21043;-63
2022/10/23 00:40:46;;;;;;;28.15;15.60;;;;;;;8.47;92.56;100132.27;1731077;80;21034;-62
2022/10/23 00:43:22;;;;;;;26.65;15.78;;;;;;;8.47;92.91;100136.36;1729212;80;21489;-63
2022/10/23 00:45:52;;;;;;;28.98;15.65;;;;;;;8.48;93.13;100134.81;1728977;81;21089;-62
2022/10/23 00:48:21;;;;;;;29.77;15.50;;;;;;;8.46;93.27;100130.58;1730923;80;21003;-63
2022/10/23 00:50:51;;;;;;;25.43;15.60;;;;;;;8.44;93.58;100126.64;1733151;81;21734;-63
2022/10/23 00:53:22;;;;;;;29.20;16.23;;;;;;;8.47;93.84;100120.83;1697512;79;21057;-63
2022/10/23 00:55:53;;;;;;;27.65;15.72;;;;;;;8.48;94.03;100117.58;1641657;85;21098;-63
2022/10/23 00:58:24;;;;;;;34.43;18.15;;;;;;;8.49;94.21;100118.75;1676001;84;21073;-64
2022/10/23 01:00:55;;;;;;;34.83;18.20;;;;;;;8.48;94.34;100121.16;1680178;84;21645;-63
2022/10/23 01:03:28;;;;;;;34.95;17.77;;;;;;;8.43;94.46;100112.66;1574613;90;21102;-63
2022/10/23 01:06:09;;;;;;;27.93;16.42;;;;;;;8.42;94.69;100109.61;1612422;86;21173;-63
2022/10/23 01:08:56;;;;;;;27.73;16.07;;;;;;;8.41;94.84;100113.38;1598279;87;21151;-62
2022/10/23 01:11:50;;;;;;;28.38;16.25;;;;;;;8.40;94.97;100111.67;1603562;89;21134;-63
2022/10/23 01:14:41;;;;;;;29.70;16.15;;;;;;;8.37;95.22;100101.14;1641949;84;21542;-65
2022/10/23 01:17:22;;;;;;;30.68;15.68;;;;;;;8.36;95.55;100102.70;1681755;83;21113;-62
2022/10/23 01:20:31;;;;;;;26.60;15.10;;;;;;;8.37;95.82;100096.20;1705309;84;21194;-63
2022/10/23 01:23:30;;;;;;;29.25;14.53;;;;;;;8.42;96.07;100091.86;1619033;88;21099;-63
2022/10/23 01:26:39;;;;;;;30.15;15.28;;;;;;;8.47;96.25;100088.06;1588067;90;21100;-63
2022/10/23 01:29:20;;;;;;;28.27;14.53;;;;;;;8.49;96.33;100087.36;1615414;87;21112;-62
2022/10/23 01:32:15;;;;;;;28.92;14.98;;;;;;;8.49;96.50;100084.63;1595825;89;21172;-63
2022/10/23 01:34:58;;;;;;;25.95;14.85;;;;;;;8.49;96.59;100075.59;1598762;88;21553;-66
2022/10/23 01:37:34;;;;;;;26.85;14.33;;;;;;;8.49;96.67;100075.06;1608083;88;21187;-66
2022/10/23 01:40:08;;;;;;;28.30;14.93;;;;;;;8.50;96.73;100078.13;1579216;86;21178;-65
2022/10/23 01:42:42;;;;;;;29.18;15.38;;;;;;;8.51;96.83;100070.27;1594398;89;21130;-65
2022/10/23 01:45:27;;;;;;;27.77;15.18;;;;;;;8.52;96.87;100069.22;1603972;88;21991;-65
2022/10/23 01:47:56;;;;;;;28.35;15.00;;;;;;;8.54;96.92;100074.49;1619484;87;21084;-66
2022/10/23 01:50:28;;;;;;;26.62;14.65;;;;;;;8.55;96.93;100067.47;1620314;87;21108;-67
2022/10/23 01:53:01;;;;;;;28.07;15.00;;;;;;;8.57;97.01;100064.03;1600975;87;21099;-67
2022/10/23 01:55:33;;;;;;;26.33;15.28;;;;;;;8.58;97.00;100064.36;1602170;87;22273;-67
2022/10/23 01:58:07;;;;;;;27.45;15.40;;;;;;;8.57;97.08;100064.03;1636377;87;21152;-68
2022/10/23 02:00:39;;;;;;;27.30;14.55;;;;;;;8.56;97.12;100066.43;1599806;88;21171;-66
2022/10/23 02:03:09;;;;;;;30.68;14.75;;;;;;;8.56;97.18;100062.34;1626483;86;21030;-67
2022/10/23 02:05:39;;;;;;;29.63;15.88;;;;;;;8.57;97.21;100064.03;1577976;89;21168;-67
2022/10/23 02:08:08;;;;;;;26.93;15.63;;;;;;;8.59;97.29;100066.56;1647445;85;21086;-68
2022/10/23 02:10:45;;;;;;;26.30;15.43;;;;;;;8.60;97.31;100068.26;1670521;84;21087;-67
2022/10/23 02:13:35;;;;;;;25.97;14.80;;;;;;;8.60;97.33;100072.36;1697067;83;21054;-68
2022/10/23 02:16:17;;;;;;;26.10;14.63;;;;;;;8.61;97.36;100066.38;1695784;83;21019;-68
2022/10/23 02:19:14;;;;;;;28.32;15.78;;;;;;;8.60;97.40;100068.78;1708276;83;21106;-67
2022/10/23 02:22:13;;;;;;;27.52;15.23;;;;;;;8.60;97.49;100068.26;1652925;86;21016;-68
2022/10/23 02:25:02;;;;;;;18.67;11.20;;;;;;;8.60;97.58;100060.59;1672856;86;21496;-69
2022/10/23 02:27:40;;;;;;;25.05;14.83;;;;;;;8.60;97.68;100061.95;1672447;85;21073;-69
2022/10/23 02:30:11;;;;;;;26.15;14.38;;;;;;;8.60;97.76;100064.69;1743489;79;21168;-69
2022/10/23 02:32:48;;;;;;;26.12;15.45;;;;;;;8.61;97.82;100067.22;1794391;79;21414;-69
2022/10/23 02:35:20;;;;;;;27.37;15.98;;;;;;;8.62;97.90;100062.60;1772436;79;21072;-69
2022/10/23 02:37:58;;;;;;;28.62;15.58;;;;;;;8.61;97.96;100061.75;1746115;79;20997;-68
2022/10/23 02:40:39;;;;;;;27.73;15.50;;;;;;;8.62;98.02;100059.35;1793272;79;21437;-70
2022/10/23 02:43:13;;;;;;;30.17;15.30;;;;;;;8.63;98.07;100058.83;1761303;79;21087;-70
2022/10/23 02:45:57;;;;;;;26.70;15.60;;;;;;;8.64;98.17;100059.16;1762879;79;21447;-68
2022/10/23 02:48:34;;;;;;;26.60;15.25;;;;;;;8.67;98.27;100057.41;1761005;79;21089;-69
2022/10/23 02:51:24;;;;;;;26.27;15.10;;;;;;;8.68;98.34;100051.75;1728790;81;21075;-70
2022/10/23 02:54:01;;;;;;;24.65;14.40;;;;;;;8.69;98.44;100063.00;1693268;81;21110;-70
2022/10/23 02:57:01;;;;;;;24.00;14.70;;;;;;;8.70;98.55;100055.66;1776289;79;21104;-68
2022/10/23 02:59:36;;;;;;;28.85;15.35;;;;;;;8.69;98.62;100056.17;1799246;78;21002;-70
2022/10/23 03:02:22;;;;;;;27.80;16.02;;;;;;;8.69;98.71;100055.33;1793179;78;21100;-70
2022/10/23 03:04:54;;;;;;;29.40;16.62;;;;;;;8.68;98.82;100050.91;1792660;79;21030;-70
2022/10/23 03:07:25;;;;;;;29.57;15.88;;;;;;;8.65;98.92;100055.39;1740894;79;21101;-69
2022/10/23 03:09:56;;;;;;;27.87;14.50;;;;;;;8.64;99.05;100052.33;1793240;79;21473;-69
2022/10/23 03:12:28;;;;;;;25.48;15.48;;;;;;;8.63;99.11;100064.30;1757874;79;21514;-70
2022/10/23 03:14:57;;;;;;;27.80;16.12;;;;;;;8.61;99.21;100062.27;1761540;79;21023;-69
2022/10/23 03:17:26;;;;;;;28.95;16.23;;;;;;;8.60;99.35;100057.33;1760970;79;21102;-69
2022/10/23 03:19:57;;;;;;;26.50;15.15;;;;;;;8.62;99.52;100053.05;1762211;79;21015;-70
2022/10/23 03:22:28;;;;;;;29.30;15.78;;;;;;;8.62;99.62;100053.89;1764061;80;20987;-70
2022/10/23 03:24:58;;;;;;;26.07;15.60;;;;;;;8.62;99.64;100050.31;1762955;79;21561;-69
2022/10/23 03:27:28;;;;;;;27.30;16.50;;;;;;;8.59;99.67;100065.20;1764791;79;20992;-70
2022/10/23 03:29:58;;;;;;;27.10;16.07;;;;;;;8.56;99.83;100051.41;1762602;79;21000;-71
2022/10/23 03:32:28;;;;;;;28.67;15.63;;;;;;;8.57;100.00;100050.37;1762326;79;21473;-70
2022/10/23 03:34:59;;;;;;;27.75;17.30;;;;;;;8.62;100.00;100048.95;1733817;81;21113;-69
2022/10/23 03:37:29;;;;;;;31.52;16.20;;;;;;;8.65;100.00;100048.56;1758163;79;21022;-68
2022/10/23 03:39:58;;;;;;;30.05;16.80;;;;;;;8.67;100.00;100051.94;1754627;79;21055;-71
2022/10/23 03:42:29;;;;;;;30.70;17.00;;;;;;;8.66;100.00;100040.17;1707953;82;21452;-70
2022/10/23 03:45:01;;;;;;;31.00;17.60;;;;;;;8.66;100.00;100044.79;1711989;81;21061;-70
2022/10/23 03:47:34;;;;;;;28.80;15.68;;;;;;;8.68;100.00;100045.44;1779558;79;21070;-72
2022/10/23 03:50:03;;;;;;;30.23;16.85;;;;;;;8.69;100.00;100041.67;1777378;79;21031;-71
2022/10/23 03:52:36;;;;;;;30.97;16.95;;;;;;;8.68;100.00;100042.19;1780028;78;21055;-72
2022/10/23 03:55:07;;;;;;;28.50;16.73;;;;;;;8.69;100.00;100037.58;1789528;78;21050;-71
2022/10/23 03:57:38;;;;;;;36.90;18.20;;;;;;;8.70;100.00;100043.36;1750963;79;21074;-69
2022/10/23 04:00:09;;;;;;;28.52;16.65;;;;;;;8.70;100.00;100039.27;1751556;80;21023;-68
2022/10/23 04:02:46;;;;;;;31.50;17.52;;;;;;;8.71;100.00;100031.39;1772960;80;21084;-69
2022/10/23 04:05:18;;;;;;;31.95;17.40;;;;;;;8.72;100.00;100038.55;1766060;79;21093;-68
2022/10/23 04:07:51;;;;;;;28.17;17.67;;;;;;;8.73;100.00;100034.78;1799318;79;21013;-68
2022/10/23 04:10:23;;;;;;;29.05;17.60;;;;;;;8.73;100.00;100029.31;1773891;78;20990;-68
2022/10/23 04:12:53;;;;;;;34.23;17.60;;;;;;;8.76;100.00;100028.92;1800020;79;21072;-69
2022/10/23 04:15:23;;;;;;;31.80;18.23;;;;;;;8.78;100.00;100027.69;1748168;80;21024;-67
2022/10/23 04:17:54;;;;;;;29.77;17.48;;;;;;;8.81;100.00;100031.91;1700112;82;21058;-68
2022/10/23 04:20:23;;;;;;;27.82;16.48;;;;;;;8.82;100.00;100028.98;1676390;84;21092;-67
2022/10/23 04:22:54;;;;;;;29.90;17.27;;;;;;;8.82;100.00;100029.51;1681086;84;21475;-68
2022/10/23 04:25:23;;;;;;;30.40;17.80;;;;;;;8.80;100.00;100026.97;1697312;83;21083;-67
2022/10/23 04:27:54;;;;;;;29.82;17.87;;;;;;;8.79;100.00;100025.80;1695818;83;21085;-66
2022/10/23 04:30:24;;;;;;;25.82;16.15;;;;;;;8.79;100.00;100028.53;1688170;83;21112;-66
2022/10/23 04:32:54;;;;;;;24.55;15.28;;;;;;;8.80;100.00;100033.80;1691469;83;21479;-66
2022/10/23 04:35:24;;;;;;;26.82;15.72;;;;;;;8.81;100.00;100025.94;1667306;83;21506;-66
2022/10/23 04:37:55;;;;;;;26.45;16.27;;;;;;;8.84;100.00;100028.80;1746178;80;21110;-66
2022/10/23 04:40:25;;;;;;;24.75;15.30;;;;;;;8.84;100.00;100027.42;1719655;81;21046;-67
2022/10/23 04:42:55;;;;;;;24.30;14.55;;;;;;;8.83;100.00;100021.64;1779555;79;21070;-64
2022/10/23 04:45:25;;;;;;;23.70;14.45;;;;;;;8.86;100.00;100023.98;1741447;80;21124;-65
2022/10/23 04:47:55;;;;;;;24.80;14.47;;;;;;;8.90;100.00;100024.75;1762291;79;21066;-64
2022/10/23 04:50:28;;;;;;;21.90;13.58;;;;;;;8.93;100.00;100028.14;1771975;79;21037;-64
2022/10/23 04:53:16;;;;;;;22.40;14.05;;;;;;;8.94;100.00;100029.30;1770357;79;21035;-65
2022/10/23 04:55:51;;;;;;;24.43;14.55;;;;;;;8.96;100.00;100028.59;1779960;78;21063;-65
2022/10/23 04:58:23;;;;;;;23.40;14.10;;;;;;;8.98;100.00;100023.77;1774089;79;21512;-65
2022/10/23 05:00:53;;;;;;;23.57;14.28;;;;;;;9.01;100.00;100021.17;1769000;79;21047;-67
2022/10/23 05:03:25;;;;;;;24.72;13.43;;;;;;;9.04;100.00;100026.23;1768827;79;21461;-64
2022/10/23 05:05:55;;;;;;;22.65;13.55;;;;;;;9.04;100.00;100021.62;1780559;80;21785;-66
2022/10/23 05:08:32;;;;;;;22.07;14.05;;;;;;;9.06;100.00;100025.00;1657207;85;21069;-64
2022/10/23 05:11:20;;;;;;;19.90;12.90;;;;;;;9.09;100.00;100023.76;1627221;86;21118;-65
2022/10/23 05:13:52;;;;;;;21.33;11.53;;;;;;;9.13;100.00;100026.45;1658120;83;21091;-66
2022/10/23 05:16:51;;;;;;;17.40;11.43;;;;;;;9.14;100.00;100020.80;1624034;85;21464;-65
2022/10/23 05:19:26;;;;;;;17.07;11.00;;;;;;;9.17;100.00;100023.65;1653064;85;21142;-65
2022/10/23 05:21:57;;;;;;;17.48;10.13;;;;;;;9.20;100.00;100029.56;1664628;85;21067;-64
2022/10/23 05:24:28;;;;;;;19.95;11.03;;;;;;;9.22;100.00;100034.83;1626993;86;21170;-64
2022/10/23 05:27:00;;;;;;;18.30;10.13;;;;;;;9.24;100.00;100036.00;1624984;87;21156;-63
2022/10/23 05:29:32;;;;;;;16.20;10.03;;;;;;;9.25;100.00;100035.80;1639003;86;21114;-63
2022/10/23 05:32:03;;;;;;;18.17;10.70;;;;;;;9.25;100.00;100033.59;1644897;85;21086;-63
2022/10/23 05:34:34;;;;;;;15.30;10.10;;;;;;;9.26;100.00;100034.77;1622348;86;21117;-65
2022/10/23 05:37:07;;;;;;;15.93;10.05;;;;;;;9.29;100.00;100036.25;1589833;88;21080;-63
2022/10/23 05:39:39;;;;;;;16.00;9.90;;;;;;;9.30;100.00;100035.20;1598936;88;21088;-63
2022/10/23 05:42:13;;;;;;;14.53;9.98;;;;;;;9.31;100.00;100031.43;1604138;88;21188;-63
2022/10/23 05:44:43;;;;;;;14.87;8.98;;;;;;;9.32;100.00;100035.86;1619988;85;21128;-63
2022/10/23 05:47:17;;;;;;;14.10;9.20;;;;;;;9.34;100.00;100030.52;1724422;82;21040;-63
2022/10/23 05:49:58;;;;;;;15.32;10.18;;;;;;;9.34;100.00;100025.56;1708508;82;21340;-63
2022/10/23 05:52:47;;;;;;;16.42;10.23;;;;;;;9.37;100.00;100032.00;1722966;82;21459;-62
2022/10/23 05:55:33;;;;;;;14.53;9.88;;;;;;;9.39;100.00;100032.65;1717666;82;21072;-63
2022/10/23 05:58:07;;;;;;;15.43;10.28;;;;;;;9.41;100.00;100039.61;1741243;80;21012;-64
2022/10/23 06:00:42;;;;;;;13.65;9.50;;;;;;;9.44;100.00;100035.63;1711853;81;21044;-62
2022/10/23 06:03:14;;;;;;;14.55;9.33;;;;;;;9.46;100.00;100041.75;1783631;79;21061;-62
2022/10/23 06:05:52;;;;;;;16.52;10.05;;;;;;;9.47;100.00;100036.08;1731006;79;21053;-63
2022/10/23 06:08:24;;;;;;;14.95;9.95;;;;;;;9.49;100.00;100033.14;1760635;79;21046;-65
2022/10/23 06:10:56;;;;;;;16.85;10.82;;;;;;;9.50;100.00;100035.68;1782140;79;21022;-62
2022/10/23 06:13:27;;;;;;;17.23;10.58;;;;;;;9.51;100.00;100046.09;1782074;78;21488;-64
2022/10/23 06:15:56;;;;;;;17.42;10.40;;;;;;;9.54;100.00;100037.48;1786074;78;21195;-63
2022/10/23 06:18:28;;;;;;;14.78;9.48;;;;;;;9.54;100.00;100036.97;1761213;79;21078;-64
2022/10/23 06:21:01;;;;;;;14.85;9.78;;;;;;;9.56;100.00;100038.66;1783437;78;21092;-63
2022/10/23 06:23:32;;;;;;;16.27;10.40;;;;;;;9.56;100.00;100035.92;1788962;78;21041;-63
2022/10/23 06:26:14;;;;;;;17.05;10.63;;;;;;;9.59;100.00;100036.37;1720785;80;21090;-63
2022/10/23 06:29:01;;;;;;;15.70;9.88;;;;;;;9.61;100.00;100023.34;1768282;79;21018;-62
2022/10/23 06:31:30;;;;;;;17.52;10.65;;;;;;;9.63;100.00;100028.61;1778659;79;21068;-62
2022/10/23 06:34:02;;;;;;;19.67;11.70;;;;;;;9.64;100.00;100028.92;1768383;79;20990;-64
2022/10/23 06:36:32;;;;;;;16.82;11.93;;;;;;;9.65;100.00;100033.35;1781365;79;21042;-64
2022/10/23 06:39:22;;;;;;;17.77;11.48;;;;;;;9.66;100.00;100039.15;1734363;79;21089;-61
2022/10/23 06:42:02;;;;;;;17.73;11.50;;;;;;;9.68;100.00;100029.69;1697744;79;21053;-63
2022/10/23 06:44:51;;;;;;;15.95;10.98;;;;;;;9.68;100.00;100033.80;1779382;78;21041;-63
2022/10/23 06:47:22;;;;;;;16.35;10.18;;;;;;;9.70;100.00;100033.07;1794665;78;21026;-62
2022/10/23 06:50:06;;;;;;;16.65;10.80;;;;;;;9.72;100.00;100033.72;1767010;79;21044;-62
2022/10/23 06:52:38;;;;;;;19.07;10.68;;;;;;;9.74;100.00;100037.09;1727679;79;21507;-64
2022/10/23 06:55:10;;;;;;;15.65;9.83;;;;;;;9.77;100.00;100034.52;1777702;79;21081;-62
2022/10/23 06:57:40;;;;;;;15.58;10.10;;;;;;;9.80;100.00;100032.22;1792842;79;21038;-62
2022/10/23 07:00:13;;;;;;;15.18;9.48;;;;;;;9.82;100.00;100028.75;1769076;78;21029;-62
2022/10/23 07:02:45;;;;;;;16.20;10.20;;;;;;;9.87;100.00;100030.04;1769042;79;21071;-64
2022/10/23 07:05:15;;;;;;;16.17;9.58;;;;;;;9.88;100.00;100028.99;1759115;79;21029;-61
2022/10/23 07:07:45;;;;;;;15.32;9.50;;;;;;;9.89;100.00;100032.89;1720164;82;21066;-62
2022/10/23 07:10:18;;;;;;;16.07;10.55;;;;;;;9.94;100.00;100039.12;1708910;81;21036;-66
2022/10/23 07:12:51;;;;;;;17.37;9.80;;;;;;;9.97;100.00;100037.36;1659008;85;21100;-62
2022/10/23 07:15:41;;;;;;;18.42;10.93;;;;;;;9.99;100.00;100041.58;1662080;85;21023;-61
2022/10/23 07:18:15;;;;;;;17.52;10.80;;;;;;;10.00;100.00;100041.05;1718948;82;21102;-63
2022/10/23 07:20:48;;;;;;;17.02;10.72;;;;;;;10.01;100.00;100050.43;1730352;81;21059;-64
2022/10/23 07:23:19;;;;;;;17.25;11.15;;;;;;;10.03;100.00;100048.86;1684630;82;21572;-63
2022/10/23 07:25:49;;;;;;;18.67;10.40;;;;;;;10.02;100.00;100045.28;1724203;82;21059;-62
2022/10/23 07:28:21;;;;;;;18.82;11.22;;;;;;;10.03;100.00;100039.28;1719093;81;21062;-63
2022/10/23 07:30:58;;;;;;;20.62;12.37;;;;;;;10.04;100.00;100042.34;1744647;79;20997;-63
2022/10/23 07:33:29;;;;;;;19.35;12.25;;;;;;;10.07;100.00;100049.63;1740228;79;21073;-62
2022/10/23 07:36:04;;;;;;;20.88;12.93;;;;;;;10.08;100.00;100038.15;1792468;79;21470;-65
2022/10/23 07:38:33;;;;;;;20.15;13.00;;;;;;;10.10;100.00;100042.89;1701364;82;21107;-62
2022/10/23 07:41:02;;;;;;;22.25;13.20;;;;;;;10.13;100.00;100038.38;1736507;81;21095;-64
2022/10/23 07:43:34;;;;;;;21.20;12.78;;;;;;;10.15;100.00;100033.55;1714034;81;21027;-65
2022/10/23 07:46:07;;;;;;;22.22;13.28;;;;;;;10.17;100.00;100031.45;1724233;81;21095;-64
2022/10/23 07:48:38;;;;;;;23.57;13.18;;;;;;;10.20;100.00;100033.81;1721964;82;21094;-64
2022/10/23 07:51:12;;;;;;;22.82;13.53;;;;;;;10.22;100.00;100030.34;1742311;81;21051;-66
2022/10/23 07:53:49;;;;;;;23.10;13.10;;;;;;;10.26;100.00;100029.41;1776522;79;21045;-63
2022/10/23 07:56:37;;;;;;;24.15;14.55;;;;;;;10.27;100.00;100026.47;1777870;79;21057;-63
2022/10/23 07:59:12;;;;;;;22.27;13.53;;;;;;;10.30;100.00;100031.53;1778921;79;21049;-64
2022/10/23 08:01:44;;;;;;;23.70;13.03;;;;;;;10.32;100.00;100027.22;1761102;79;21070;-64
2022/10/23 08:04:13;;;;;;;21.90;13.13;;;;;;;10.33;100.00;100028.38;1761494;79;21054;-63
2022/10/23 08:06:47;;;;;;;24.82;14.05;;;;;;;10.34;100.00;100024.59;1773737;79;21458;-64
2022/10/23 08:09:18;;;;;;;15.20;8.73;;;;;;;10.38;100.00;100032.72;1799442;78;21081;-62
2022/10/23 08:11:49;;;;;;;18.07;10.78;;;;;;;10.42;100.00;100035.40;1769184;78;21080;-61
2022/10/23 08:14:19;;;;;;;25.77;14.63;;;;;;;10.53;100.00;100033.95;1767117;79;21544;-61
2022/10/23 08:16:51;;;;;;;24.37;13.22;;;;;;;10.61;100.00;100032.92;1785900;79;21450;-61
2022/10/23 08:19:20;;;;;;;24.20;13.65;;;;;;;10.67;100.00;100034.83;1764141;79;21076;-62
2022/10/23 08:21:53;;;;;;;24.15;14.03;;;;;;;10.71;100.00;100036.95;1740577;78;21006;-60
2022/10/23 08:24:23;;;;;;;22.52;12.85;;;;;;;10.77;100.00;100038.02;1780569;79;21142;-60
2022/10/23 08:26:53;;;;;;;24.20;14.03;;;;;;;10.82;100.00;100042.34;1778419;79;21441;-61
2022/10/23 08:29:24;;;;;;;30.48;17.17;;;;;;;10.86;100.00;100039.50;1792655;79;21124;-62
2022/10/23 08:31:56;;;;;;;28.95;14.43;;;;;;;10.87;100.00;100039.83;1780878;79;21065;-62
2022/10/23 08:34:27;;;;;;;26.45;13.60;;;;;;;10.92;100.00;100048.79;1766161;79;21044;-62
2022/10/23 08:36:56;;;;;;;25.43;13.30;;;;;;;10.94;100.00;100042.05;1700594;82;21013;-62
2022/10/23 08:39:26;;;;;;;22.98;12.98;;;;;;;10.99;100.00;100046.91;1744549;81;21051;-61
2022/10/23 08:42:00;;;;;;;25.55;13.45;;;;;;;11.04;100.00;100052.08;1795360;78;20998;-61
2022/10/23 08:44:39;;;;;;;24.72;13.13;;;;;;;11.09;100.00;100055.59;1777578;79;21078;-62
2022/10/23 08:47:26;;;;;;;25.35;13.35;;;;;;;11.09;100.00;100050.95;1796741;79;21462;-61
2022/10/23 08:50:33;;;;;;;25.90;13.45;;;;;;;11.07;100.00;100055.80;1755509;79;21078;-62
2022/10/23 08:53:30;;;;;;;25.50;13.58;;;;;;;11.08;100.00;100060.23;1778041;79;21071;-65
2022/10/23 08:56:05;;;;;;;25.17;13.45;;;;;;;11.08;100.00;100059.39;1769623;79;21041;-64
2022/10/23 08:58:50;;;;;;;24.23;13.03;;;;;;;11.09;100.00;100059.70;1779003;79;21027;-64
2022/10/23 09:01:28;;;;;;;27.43;13.97;;;;;;;11.08;100.00;100067.61;1734501;80;21035;-62
2022/10/23 09:03:57;;;;;;;23.18;13.05;;;;;;;11.07;100.00;100061.28;1775436;79;21810;-64
2022/10/23 09:06:49;;;;;;;30.55;13.85;;;;;;;11.07;100.00;100068.14;1763505;80;21006;-64
2022/10/23 09:09:48;;;;;;;24.82;12.50;;;;;;;11.07;100.00;100070.87;1735696;80;21086;-64
2022/10/23 09:12:20;;;;;;;21.52;11.90;;;;;;;11.07;100.00;100068.14;1758209;79;21097;-65
2022/10/23 09:15:35;;;;;;;22.13;12.20;;;;;;;11.08;100.00;100066.24;1779471;78;21450;-65
2022/10/23 09:18:14;;;;;;;23.45;12.68;;;;;;;11.09;100.00;100063.30;1756525;79;21044;-66
2022/10/23 09:20:44;;;;;;;23.38;12.85;;;;;;;11.11;100.00;100065.83;1772330;79;21501;-65
2022/10/23 09:23:19;;;;;;;22.40;11.97;;;;;;;11.12;100.00;100056.55;1778065;79;21101;-64
2022/10/23 09:25:49;;;;;;;23.35;12.20;;;;;;;11.14;100.00;100056.33;1763733;79;21055;-68
2022/10/23 09:28:24;;;;;;;21.55;11.63;;;;;;;11.16;100.00;100061.08;1776050;79;21131;-64
2022/10/23 09:30:53;;;;;;;20.60;11.18;;;;;;;11.17;100.00;100063.61;1774903;79;21438;-66
2022/10/23 09:33:25;;;;;;;22.70;11.80;;;;;;;11.19;100.00;100062.88;1759343;79;21090;-64
2022/10/23 09:38:49;;;;;;;22.98;12.23;;;;;;;11.24;100.00;100067.73;1714298;82;21149;-64
2022/10/23 09:41:27;;;;;;;23.92;12.28;;;;;;;11.27;100.00;100072.80;1729725;81;21043;-65
2022/10/23 09:44:26;;;;;;;22.10;11.75;;;;;;;11.29;100.00;100071.53;1701045;83;21506;-65
2022/10/23 09:47:10;;;;;;;21.62;11.28;;;;;;;11.32;100.00;100070.27;1640453;84;21134;-66
2022/10/23 09:49:44;;;;;;;21.30;10.95;;;;;;;11.33;100.00;100071.95;1657801;84;21597;-65
2022/10/23 09:52:18;;;;;;;20.88;10.70;;;;;;;11.35;100.00;100063.83;1617563;85;21450;-65
2022/10/23 09:54:55;;;;;;;21.60;11.38;;;;;;;11.37;100.00;100063.62;1647342;84;21099;-66
2022/10/23 09:57:41;;;;;;;19.50;11.28;;;;;;;11.38;100.00;100062.03;1658281;85;21601;-65
2022/10/23 10:00:23;;;;;;;20.40;11.22;;;;;;;11.41;100.00;100059.40;1665837;85;21054;-66
2022/10/23 10:03:05;;;;;;;21.05;11.70;;;;;;;11.44;100.00;100058.97;1647905;86;21087;-64
2022/10/23 10:05:36;;;;;;;17.62;9.90;;;;;;;11.44;100.00;100058.45;1632470;85;21090;-67
2022/10/23 10:08:37;;;;;;;21.97;10.85;;;;;;;11.46;100.00;100056.86;1649277;85;21510;-65
2022/10/23 10:11:17;;;;;;;17.70;10.65;;;;;;;11.48;100.00;100052.01;1663616;85;21611;-65
2022/10/23 10:13:55;;;;;;;18.45;10.80;;;;;;;11.48;100.00;100052.01;1661910;83;21532;-70
2022/10/23 10:16:50;;;;;;;17.48;10.13;;;;;;;11.51;100.00;100058.97;1717721;82;21087;-64
2022/10/23 10:19:52;;;;;;;15.95;9.30;;;;;;;11.53;100.00;100054.95;1741619;81;21111;-65
2022/10/23 10:22:52;;;;;;;17.35;9.88;;;;;;;11.57;100.00;100052.11;1720841;82;21115;-65
2022/10/23 10:26:00;;;;;;;16.40;9.38;;;;;;;11.61;100.00;100049.25;1740555;81;21118;-68
2022/10/23 10:28:57;;;;;;;19.35;10.25;;;;;;;11.68;100.00;100052.83;1725609;81;21075;-64
2022/10/23 10:31:46;;;;;;;15.93;9.70;;;;;;;11.72;100.00;100045.88;1704359;82;21019;-66
2022/10/23 10:34:41;;;;;;;15.23;9.10;;;;;;;11.74;100.00;100047.89;1732514;82;21047;-67
2022/10/23 10:37:35;;;;;;;15.80;9.33;;;;;;;11.74;100.00;100045.14;1778041;79;21472;-65
2022/10/23 10:40:16;;;;;;;16.70;8.98;;;;;;;11.77;100.00;100044.40;1780711;79;21043;-67
2022/10/23 10:43:13;;;;;;;12.85;7.92;;;;;;;11.78;100.00;100040.63;1786438;79;21491;-66
2022/10/23 10:45:49;;;;;;;14.58;8.33;;;;;;;11.77;100.00;100033.42;1755485;79;21014;-65
2022/10/23 10:48:52;;;;;;;15.83;9.33;;;;;;;11.75;100.00;100043.23;1782406;79;21073;-68
2022/10/23 10:51:47;;;;;;;13.58;8.78;;;;;;;11.77;100.00;100043.02;1752121;79;21786;-67
2022/10/23 10:54:37;;;;;;;15.88;9.30;;;;;;;11.75;100.00;100036.38;1783582;79;21062;-63
2022/10/23 10:57:17;;;;;;;12.10;7.75;;;;;;;11.77;100.00;100045.77;1786249;79;21143;-66
2022/10/23 10:59:48;;;;;;;12.03;7.60;;;;;;;11.75;100.00;100044.61;1767171;80;21063;-65
2022/10/23 11:02:38;;;;;;;12.20;8.05;;;;;;;11.75;100.00;100046.83;1774090;79;21065;-64
2022/10/23 11:05:36;;;;;;;13.90;8.30;;;;;;;11.77;100.00;100045.77;1784261;78;21545;-65
2022/10/23 11:08:26;;;;;;;11.48;7.37;;;;;;;11.79;100.00;100041.79;1777623;79;21053;-63
2022/10/23 11:10:56;;;;;;;13.50;8.13;;;;;;;11.80;100.00;100042.62;1760464;78;21081;-66
2022/10/23 11:13:35;;;;;;;10.85;7.05;;;;;;;11.81;100.00;100043.78;1782548;79;21053;-65
2022/10/23 11:16:18;;;;;;;12.73;6.78;;;;;;;11.83;100.00;100050.44;1786286;79;21524;-65
2022/10/23 11:19:13;;;;;;;12.60;7.20;;;;;;;11.85;100.00;100042.83;1770356;79;22224;-65
2022/10/23 11:21:49;;;;;;;11.10;6.85;;;;;;;11.87;100.00;100040.71;1787735;79;21030;-66
2022/10/23 11:24:32;;;;;;;10.72;6.40;;;;;;;11.90;100.00;100037.01;1792128;78;21530;-64
2022/10/23 11:27:26;;;;;;;9.33;6.10;;;;;;;11.94;100.00;100041.01;1778314;79;21061;-67
2022/10/23 11:30:29;;;;;;;11.10;6.40;;;;;;;11.97;100.00;100036.98;1776776;79;21416;-65
2022/10/23 11:33:50;;;;;;;9.73;5.97;;;;;;;12.04;100.00;100048.80;1769575;79;21543;-66
2022/10/23 11:36:40;;;;;;;12.65;7.40;;;;;;;12.07;100.00;100041.50;1755122;80;21046;-65
2022/10/23 11:39:29;;;;;;;8.75;5.90;;;;;;;12.13;100.00;100043.38;1767206;79;21022;-67
2022/10/23 11:42:13;;;;;;;9.60;5.97;;;;;;;12.17;100.00;100042.41;1778318;79;21037;-65
2022/10/23 11:44:47;;;;;;;9.10;5.62;;;;;;;12.20;100.00;100046.95;1797023;79;21030;-64
2022/10/23 11:47:33;;;;;;;9.80;5.92;;;;;;;12.22;100.00;100046.20;1773283;79;21120;-64
2022/10/23 11:50:12;;;;;;;9.80;6.03;;;;;;;12.26;100.00;100053.47;1781310;79;21077;-63
2022/10/23 11:53:09;;;;;;;9.25;6.12;;;;;;;12.28;100.00;100053.56;1704618;82;21054;-71
2022/10/23 11:55:37;;;;;;;9.83;6.20;;;;;;;12.31;100.00;100061.37;1729173;82;21499;-67
2022/10/23 11:58:16;;;;;;;8.43;6.00;;;;;;;12.34;100.00;100066.43;1727658;82;21207;-66